Time;durP1;ratioP1;P1;durP2;ratioP2;P2;SDS_P1;SDS_P2;PMS_P1;PMS_P2;Temp;Humidity;BMP_temperature;BMP_pressure;BME280_temperature;BME280_humidity;BME280_pressure;Samples;Min_cycle;Max_cycle;Signal;HPM_P1;HPM_P2
2021/01/05 00:01:22;;;;;;;42.25;21.77;;;;;;;2.07;77.22;99863.31;1804607;79;21542;-42
2021/01/05 00:03:50;;;;;;;34.00;20.68;;;;;;;2.00;77.45;99863.67;1804552;79;21393;-42
2021/01/05 00:06:19;;;;;;;45.38;21.57;;;;;;;1.92;77.48;99863.00;1804564;79;21126;-40
2021/01/05 00:08:47;;;;;;;41.90;20.80;;;;;;;1.87;77.70;99861.73;1804395;79;21036;-41
2021/01/05 00:11:24;;;;;;;38.90;18.62;;;;;;;1.81;77.74;99858.88;1804580;79;21111;-41
2021/01/05 00:13:52;;;;;;;31.23;19.15;;;;;;;1.80;77.62;99863.96;1804435;79;21402;-42
2021/01/05 00:16:21;;;;;;;39.92;19.02;;;;;;;1.76;77.55;99853.59;1804394;79;21000;-41
2021/01/05 00:18:49;;;;;;;33.98;17.57;;;;;;;1.64;77.57;99862.06;1754981;79;21158;-41
2021/01/05 00:21:17;;;;;;;34.43;16.85;;;;;;;1.55;77.78;99865.67;1804385;79;21134;-41
2021/01/05 00:23:46;;;;;;;40.85;17.98;;;;;;;1.49;77.73;99856.13;1804497;79;21115;-42
2021/01/05 00:26:14;;;;;;;29.77;18.23;;;;;;;1.47;77.80;99859.61;1804449;79;21197;-40
2021/01/05 00:28:42;;;;;;;32.58;17.65;;;;;;;1.39;77.87;99858.38;1804339;79;20933;-40
2021/01/05 00:31:11;;;;;;;27.52;14.35;;;;;;;1.25;78.16;99848.14;1793790;79;21162;-41
2021/01/05 00:33:40;;;;;;;24.95;15.10;;;;;;;1.29;78.01;99865.18;1761507;80;21135;-41
2021/01/05 00:36:09;;;;;;;29.32;16.42;;;;;;;1.26;78.06;99866.53;1772690;80;21166;-41
2021/01/05 00:38:37;;;;;;;28.07;14.95;;;;;;;1.25;78.28;99876.19;1772825;80;22126;-39
2021/01/05 00:41:05;;;;;;;25.60;14.98;;;;;;;1.24;78.23;99871.37;1772633;80;21135;-42
2021/01/05 00:43:34;;;;;;;35.48;14.75;;;;;;;1.28;78.14;99872.39;1772701;80;21166;-41
2021/01/05 00:46:03;;;;;;;28.62;13.95;;;;;;;1.30;77.96;99875.59;1772702;81;21095;-41
2021/01/05 00:48:32;;;;;;;24.75;12.93;;;;;;;1.28;77.91;99874.27;1772777;80;21157;-40
2021/01/05 00:51:00;;;;;;;20.25;12.47;;;;;;;1.29;77.79;99869.98;1772653;81;21629;-42
2021/01/05 00:53:29;;;;;;;21.27;12.30;;;;;;;1.34;77.62;99875.01;1772805;80;21608;-40
2021/01/05 00:55:57;;;;;;;22.70;13.25;;;;;;;1.36;77.54;99877.63;1772639;80;21170;-41
2021/01/05 00:58:26;;;;;;;22.22;14.15;;;;;;;1.38;77.46;99877.36;1772608;81;21020;-41
2021/01/05 01:00:55;;;;;;;12.88;8.70;;;;;;;1.40;77.55;99867.19;1772942;80;21151;-40
2021/01/05 01:03:23;;;;;;;23.75;13.00;;;;;;;1.43;77.47;99858.59;1772719;81;21408;-39
2021/01/05 01:05:53;;;;;;;;;;;;;;;1.47;77.23;99848.37;1775095;80;21154;-41
2021/01/05 01:08:23;;;;;;;23.80;12.55;;;;;;;1.47;77.14;99847.58;1772936;81;20560;-39
2021/01/05 01:10:52;;;;;;;21.68;12.58;;;;;;;1.36;77.46;99844.24;1772853;81;21325;-41
2021/01/05 01:13:22;;;;;;;19.15;11.12;;;;;;;1.41;77.46;99855.41;1772821;80;21130;-41
2021/01/05 01:15:51;;;;;;;27.70;14.40;;;;;;;1.48;77.32;99846.51;1772629;80;21142;-39
2021/01/05 01:18:19;;;;;;;36.70;17.10;;;;;;;1.48;77.17;99853.19;1772697;81;21136;-41
2021/01/05 01:20:48;;;;;;;29.55;14.58;;;;;;;1.38;77.24;99850.64;1772582;81;21134;-42
2021/01/05 01:23:18;;;;;;;;;;;;;;;1.30;77.39;99844.88;1774877;80;20988;-41
2021/01/05 01:25:47;;;;;;;32.03;15.20;;;;;;;1.30;77.37;99852.89;1772610;80;20346;-41
2021/01/05 01:28:16;;;;;;;31.15;15.88;;;;;;;1.21;77.73;99850.56;1774463;80;21203;-41
2021/01/05 01:30:47;;;;;;;31.12;15.23;;;;;;;1.21;77.73;99847.13;1781532;79;21075;-40
2021/01/05 01:33:16;;;;;;;26.97;15.13;;;;;;;1.21;77.95;99848.47;1781623;80;21130;-41
2021/01/05 01:35:45;;;;;;;30.57;15.20;;;;;;;1.28;77.83;99850.23;1781518;80;21711;-40
2021/01/05 01:38:15;;;;;;;33.13;16.42;;;;;;;1.38;77.61;99850.64;1781465;80;21175;-41
2021/01/05 01:40:56;;;;;;;44.77;18.42;;;;;;;1.43;77.71;99840.69;1841033;78;23349;-41
2021/01/05 01:43:30;;;;;;;43.70;18.57;;;;;;;1.39;77.69;99845.02;1816392;79;21007;-41
2021/01/05 01:46:00;;;;;;;39.45;18.00;;;;;;;1.40;77.62;99837.81;1815276;79;21340;-41
2021/01/05 01:48:30;;;;;;;37.28;18.27;;;;;;;1.40;77.48;99840.48;1815179;79;20999;-41
2021/01/05 01:51:01;;;;;;;50.38;19.85;;;;;;;1.39;77.58;99841.02;1816223;79;21011;-40
2021/01/05 01:53:57;;;;;;;38.40;18.35;;;;;;;1.39;77.60;99833.54;1815955;79;21040;-41
2021/01/05 01:57:05;;;;;;;45.40;18.75;;;;;;;1.44;77.44;99834.81;1816360;79;20999;-41
2021/01/05 02:00:05;;;;;;;38.35;18.17;;;;;;;1.44;77.25;99825.46;1816302;79;21356;-41
2021/01/05 02:03:12;;;;;;;38.90;17.40;;;;;;;1.33;77.36;99830.67;1816314;79;21020;-40
2021/01/05 02:05:50;;;;;;;31.50;16.52;;;;;;;1.24;77.56;99828.65;1816280;79;20968;-41
2021/01/05 02:08:52;;;;;;;31.27;15.32;;;;;;;1.27;77.61;99830.73;1815914;79;21609;-41
2021/01/05 02:12:19;;;;;;;44.15;18.30;;;;;;;1.35;77.45;99823.18;1832474;77;21173;-42
2021/01/05 02:15:18;;;;;;;34.23;17.67;;;;;;;1.29;77.68;99828.59;1704388;83;21381;-40
2021/01/05 02:18:20;;;;;;;40.80;17.57;;;;;;;1.22;77.80;99821.45;1704449;84;21484;-40
2021/01/05 02:20:57;;;;;;;46.95;18.15;;;;;;;1.25;77.81;99818.23;1791044;77;21589;-41
2021/01/05 02:23:51;;;;;;;49.67;20.72;;;;;;;1.23;78.00;99817.70;1814248;77;21004;-42
2021/01/05 02:26:42;;;;;;;39.65;18.57;;;;;;;1.25;78.21;99817.43;1775300;80;21110;-41
2021/01/05 02:29:16;;;;;;;47.27;18.32;;;;;;;1.21;78.17;99811.84;1775243;80;22238;-41
2021/01/05 02:32:09;;;;;;;41.95;18.85;;;;;;;1.17;78.12;99804.69;1729226;82;21067;-38
2021/01/05 02:35:08;;;;;;;42.40;18.92;;;;;;;1.08;78.29;99807.75;1717546;82;21158;-41
2021/01/05 02:38:24;;;;;;;33.92;17.95;;;;;;;0.95;78.63;99798.56;1749154;82;21130;-39
2021/01/05 02:41:50;;;;;;;58.78;19.23;;;;;;;0.92;78.63;99797.78;1744697;82;21158;-40
2021/01/05 02:44:58;;;;;;;37.83;19.15;;;;;;;0.90;78.80;99789.28;1721640;83;21276;-40
2021/01/05 02:48:33;;;;;;;36.90;19.52;;;;;;;0.93;78.80;99781.23;1744713;82;21181;-39
2021/01/05 02:51:49;;;;;;;57.30;23.00;;;;;;;0.95;78.74;99777.21;1744486;81;21133;-42
2021/01/05 02:54:47;;;;;;;40.88;19.82;;;;;;;0.80;79.01;99774.72;1728101;82;21192;-42
2021/01/05 02:57:53;;;;;;;48.73;20.37;;;;;;;0.79;79.11;99773.13;1809431;78;22847;-41
2021/01/05 03:01:02;;;;;;;53.30;21.73;;;;;;;0.70;79.08;99772.96;1766181;80;21002;-41
2021/01/05 03:03:44;;;;;;;38.42;20.30;;;;;;;0.58;79.42;99777.11;1705938;82;21280;-41
2021/01/05 03:06:51;;;;;;;44.00;20.90;;;;;;;0.48;79.74;99766.02;1743112;82;21087;-40
2021/01/05 03:10:16;;;;;;;51.85;21.62;;;;;;;0.47;79.72;99755.61;1749309;82;21047;-41
2021/01/05 03:13:25;;;;;;;44.10;21.00;;;;;;;0.43;79.92;99768.20;1749247;82;21364;-41
2021/01/05 03:16:32;;;;;;;54.67;23.30;;;;;;;0.47;79.98;99770.28;1636829;86;21098;-41
2021/01/05 03:19:39;;;;;;;71.80;24.47;;;;;;;0.50;80.07;99764.37;1641713;87;21231;-42
2021/01/05 03:22:28;;;;;;;44.48;20.92;;;;;;;0.53;80.26;99769.16;1735887;82;21035;-44
2021/01/05 03:25:14;;;;;;;66.82;24.92;;;;;;;0.61;80.10;99773.87;1749705;82;21040;-41
2021/01/05 03:28:03;;;;;;;66.42;23.90;;;;;;;0.67;79.98;99768.74;1749139;82;21205;-40
2021/01/05 03:30:54;;;;;;;54.60;24.02;;;;;;;0.61;79.92;99761.33;1755304;80;21146;-41
2021/01/05 03:33:41;;;;;;;49.00;24.35;;;;;;;0.59;79.94;99754.67;1749276;82;21333;-40
2021/01/05 03:36:28;;;;;;;56.35;24.75;;;;;;;0.55;79.58;99761.66;1749199;82;21166;-39
2021/01/05 03:39:14;;;;;;;49.23;24.43;;;;;;;0.46;79.83;99761.48;1780243;80;21027;-41
2021/01/05 03:42:01;;;;;;;48.38;24.75;;;;;;;0.44;79.96;99761.76;1775188;80;21158;-40
2021/01/05 03:44:48;;;;;;;66.80;27.90;;;;;;;0.56;79.53;99759.25;1775305;80;20948;-41
2021/01/05 03:47:35;;;;;;;57.88;24.43;;;;;;;0.59;79.48;99750.67;1797743;78;22001;-40
2021/01/05 03:50:22;;;;;;;60.15;25.02;;;;;;;0.51;79.53;99747.30;1777813;80;21011;-41
2021/01/05 03:53:08;;;;;;;58.92;23.67;;;;;;;0.50;79.68;99748.38;1777767;80;21387;-42
2021/01/05 03:55:55;;;;;;;44.85;22.82;;;;;;;0.46;79.89;99743.35;1777651;80;21317;-41
2021/01/05 03:58:42;;;;;;;49.80;22.67;;;;;;;0.27;79.95;99717.95;1777740;80;20972;-42
2021/01/05 04:01:29;;;;;;;48.45;20.90;;;;;;;0.36;80.00;99738.38;1777630;80;21305;-40
2021/01/05 04:03:57;;;;;;;47.13;22.10;;;;;;;0.33;79.92;99745.62;1777619;80;20976;-40
2021/01/05 04:06:28;;;;;;;46.92;22.15;;;;;;;0.22;80.15;99742.00;1777882;80;22793;-39
2021/01/05 04:08:57;;;;;;;53.02;22.82;;;;;;;0.22;80.21;99741.47;1777729;80;21429;-41
2021/01/05 04:11:26;;;;;;;48.17;21.15;;;;;;;0.17;80.45;99736.72;1777708;80;21007;-40
2021/01/05 04:13:54;;;;;;;45.60;22.17;;;;;;;0.13;80.46;99744.48;1777553;80;21143;-41
2021/01/05 04:16:22;;;;;;;42.95;21.35;;;;;;;0.11;80.43;99745.30;1745618;80;21174;-41
2021/01/05 04:18:51;;;;;;;53.42;22.85;;;;;;;0.14;80.41;99743.42;1777650;80;21237;-41
2021/01/05 04:21:19;;;;;;;48.42;22.32;;;;;;;0.06;80.46;99732.55;1777707;80;21059;-41
2021/01/05 04:23:47;;;;;;;51.88;24.72;;;;;;;0.03;80.61;99735.78;1777589;80;21152;-40
2021/01/05 04:26:16;;;;;;;43.58;22.67;;;;;;;0.04;80.63;99746.17;1777715;80;21190;-41
2021/01/05 04:28:44;;;;;;;50.92;23.32;;;;;;;0.07;80.77;99741.61;1777751;80;21114;-40
2021/01/05 04:31:12;;;;;;;52.03;24.75;;;;;;;0.11;80.84;99735.17;1766675;80;21197;-42
2021/01/05 04:33:41;;;;;;;63.33;26.07;;;;;;;0.14;80.61;99731.42;1746729;82;21174;-41
2021/01/05 04:36:09;;;;;;;49.53;25.97;;;;;;;0.12;80.64;99730.90;1746819;82;21177;-40
2021/01/05 04:38:38;;;;;;;46.23;24.92;;;;;;;0.14;80.78;99739.95;1746872;82;21142;-41
2021/01/05 04:41:08;;;;;;;53.30;26.45;;;;;;;0.15;80.71;99733.52;1746865;82;21166;-41
2021/01/05 04:43:42;;;;;;;;;;;;;;;0.17;80.67;99733.52;1749565;82;21361;-41
2021/01/05 04:46:22;;;;;;;59.67;24.98;;;;;;;0.15;80.60;99732.98;1743726;81;20280;-41
2021/01/05 04:49:01;;;;;;;55.85;25.82;;;;;;;0.09;80.87;99724.80;1736718;82;21135;-41
2021/01/05 04:52:03;;;;;;;47.95;22.60;;;;;;;0.11;80.87;99726.63;1736613;82;21147;-40
2021/01/05 04:54:40;;;;;;;48.65;24.18;;;;;;;0.05;81.05;99729.08;1736587;82;21589;-41
2021/01/05 04:57:26;;;;;;;54.63;24.63;;;;;;;0.06;81.04;99729.34;1736488;82;21330;-41
2021/01/05 05:00:24;;;;;;;47.80;23.47;;;;;;;0.05;81.13;99729.08;1735917;82;20980;-42
2021/01/05 05:03:19;;;;;;;47.30;23.25;;;;;;;0.05;81.29;99743.74;1736012;82;20937;-40
2021/01/05 05:06:20;;;;;;;82.72;23.77;;;;;;;0.15;81.24;99746.85;1735983;82;21163;-40
2021/01/05 05:09:25;;;;;;;50.45;23.35;;;;;;;0.19;81.30;99735.91;1736063;82;21170;-41
2021/01/05 05:12:08;;;;;;;52.88;24.25;;;;;;;0.21;81.26;99741.73;1735933;82;21207;-40
2021/01/05 05:14:47;;;;;;;49.27;23.65;;;;;;;0.25;81.08;99734.76;1735711;82;21130;-41
2021/01/05 05:17:49;;;;;;;44.42;23.42;;;;;;;0.25;81.12;99734.22;1736088;82;21142;-40
2021/01/05 05:20:44;;;;;;;45.80;23.05;;;;;;;0.25;80.90;99731.56;1736007;82;20996;-40
2021/01/05 05:23:35;;;;;;;58.58;25.77;;;;;;;0.28;80.91;99727.02;1735844;82;21134;-41
2021/01/05 05:26:40;;;;;;;36.90;21.45;;;;;;;0.28;80.98;99715.55;1735975;82;21353;-41
2021/01/05 05:29:32;;;;;;;49.00;20.80;;;;;;;0.29;80.98;99715.24;1687909;82;21182;-40
2021/01/05 05:32:02;;;;;;;51.35;21.68;;;;;;;0.26;80.73;99706.48;1736027;81;20992;-40
2021/01/05 05:34:35;;;;;;;35.25;19.35;;;;;;;0.23;80.83;99725.73;1703301;84;21594;-40
2021/01/05 05:37:28;;;;;;;39.83;20.15;;;;;;;0.26;80.94;99727.02;1677956;85;21171;-41
2021/01/05 05:40:11;;;;;;;34.90;19.45;;;;;;;0.33;80.85;99721.63;1675551;85;21358;-41
2021/01/05 05:43:07;;;;;;;43.38;19.95;;;;;;;0.36;80.95;99717.05;1835991;78;23300;-41
2021/01/05 05:45:40;;;;;;;29.27;18.92;;;;;;;0.30;80.99;99722.70;1808370;79;21012;-40
2021/01/05 05:48:20;;;;;;;40.38;19.17;;;;;;;0.35;80.96;99714.13;1808251;79;21357;-41
2021/01/05 05:51:08;;;;;;;38.13;18.75;;;;;;;0.40;80.64;99712.73;1803704;79;21059;-41
2021/01/05 05:53:45;;;;;;;33.38;17.98;;;;;;;0.33;80.52;99706.16;1773322;79;21303;-41
2021/01/05 05:56:16;;;;;;;40.92;18.50;;;;;;;0.27;80.62;99705.42;1807831;79;21343;-40
2021/01/05 05:58:53;;;;;;;67.60;18.02;;;;;;;0.26;80.65;99694.48;1807736;79;21550;-36
2021/01/05 06:01:30;;;;;;;32.63;16.17;;;;;;;0.21;80.72;99703.87;1807610;79;22048;-41
2021/01/05 06:03:58;;;;;;;36.58;17.70;;;;;;;0.18;80.84;99703.12;1808272;79;21557;-41
2021/01/05 06:06:28;;;;;;;71.22;18.87;;;;;;;0.23;80.79;99703.06;1777858;79;21338;-41
2021/01/05 06:08:56;;;;;;;34.33;16.80;;;;;;;0.18;80.96;99690.33;1808199;79;21020;-41
2021/01/05 06:11:27;;;;;;;33.00;16.55;;;;;;;0.20;80.95;99694.81;1808306;79;21140;-41
2021/01/05 06:13:55;;;;;;;39.48;17.10;;;;;;;0.19;80.91;99695.38;1808193;79;21431;-41
2021/01/05 06:16:23;;;;;;;31.07;17.20;;;;;;;0.18;80.96;99699.12;1808260;79;21171;-41
2021/01/05 06:18:52;;;;;;;29.95;17.25;;;;;;;0.16;81.04;99695.13;1808262;79;21095;-41
2021/01/05 06:21:20;;;;;;;43.40;18.50;;;;;;;0.20;81.06;99699.61;1808237;79;21617;-40
2021/01/05 06:23:48;;;;;;;29.00;15.68;;;;;;;0.19;80.97;99700.71;1808191;79;21154;-41
2021/01/05 06:26:18;;;;;;;34.33;16.05;;;;;;;0.17;81.06;99692.73;1808205;79;21473;-41
2021/01/05 06:28:47;;;;;;;31.45;16.52;;;;;;;0.16;81.30;99699.92;1808232;79;21020;-41
2021/01/05 06:31:16;;;;;;;32.65;17.35;;;;;;;0.21;81.20;99697.75;1796085;79;21148;-41
2021/01/05 06:33:44;;;;;;;40.48;17.12;;;;;;;0.17;81.41;99705.52;1776335;80;21110;-42
2021/01/05 06:36:14;;;;;;;31.02;16.07;;;;;;;0.15;81.48;99702.86;1776503;80;21138;-41
2021/01/05 06:38:42;;;;;;;35.45;18.05;;;;;;;0.24;81.31;99704.63;1776299;80;21194;-41
2021/01/05 06:41:11;;;;;;;24.52;15.48;;;;;;;0.21;81.34;99707.08;1773944;80;21462;-41
2021/01/05 06:43:39;;;;;;;31.90;15.45;;;;;;;0.21;81.45;99707.88;1765717;81;21170;-39
2021/01/05 06:46:09;;;;;;;32.42;17.07;;;;;;;0.29;81.29;99699.25;1765613;81;21166;-40
2021/01/05 06:48:37;;;;;;;34.95;16.57;;;;;;;0.29;81.29;99702.48;1765846;81;21163;-41
2021/01/05 06:51:06;;;;;;;26.52;16.90;;;;;;;0.32;81.24;99705.91;1765566;81;21276;-42
2021/01/05 06:53:34;;;;;;;32.05;17.27;;;;;;;0.36;81.17;99717.05;1765212;81;21116;-41
2021/01/05 06:56:03;;;;;;;29.70;16.27;;;;;;;0.31;80.90;99713.64;1765042;81;21135;-42
2021/01/05 06:58:32;;;;;;;26.02;15.88;;;;;;;0.27;80.90;99717.41;1765345;81;21527;-41
2021/01/05 07:01:00;;;;;;;27.73;16.73;;;;;;;0.29;81.06;99716.58;1764974;81;21135;-41
2021/01/05 07:03:29;;;;;;;26.52;17.35;;;;;;;0.29;81.12;99724.58;1765205;81;21203;-40
2021/01/05 07:05:57;;;;;;;29.05;17.12;;;;;;;0.18;81.21;99707.11;1765018;81;21130;-39
2021/01/05 07:08:25;;;;;;;30.82;18.10;;;;;;;0.35;81.14;99728.79;1765128;81;21021;-42
2021/01/05 07:10:58;;;;;;;46.05;18.48;;;;;;;0.43;81.00;99722.86;1765083;81;21150;-41
2021/01/05 07:13:26;;;;;;;29.60;16.50;;;;;;;0.45;80.90;99718.55;1765289;81;21557;-41
2021/01/05 07:15:54;;;;;;;36.48;17.50;;;;;;;0.46;80.76;99722.02;1765047;81;21363;-41
2021/01/05 07:18:23;;;;;;;33.00;18.25;;;;;;;0.49;80.65;99717.44;1765178;81;21024;-41
2021/01/05 07:20:52;;;;;;;;;;;;;;;0.44;80.60;99710.28;1767669;80;21135;-41
2021/01/05 07:23:21;;;;;;;30.15;17.35;;;;;;;0.41;80.59;99718.87;1765159;80;20179;-40
2021/01/05 07:25:51;;;;;;;34.85;17.27;;;;;;;0.35;80.90;99711.45;1765297;81;21520;-41
2021/01/05 07:28:19;;;;;;;28.52;18.42;;;;;;;0.36;80.91;99709.59;1765090;81;21368;-41
2021/01/05 07:30:47;;;;;;;30.90;18.98;;;;;;;0.36;80.97;99711.72;1759263;81;21012;-42
2021/01/05 07:33:16;;;;;;;28.35;17.42;;;;;;;0.37;80.93;99707.98;1734727;82;21004;-40
2021/01/05 07:35:46;;;;;;;;;;;;;;;0.43;80.60;99707.39;1737286;82;21031;-39
2021/01/05 07:38:14;;;;;;;25.85;16.45;;;;;;;0.38;80.60;99714.11;1734752;82;20260;-40
2021/01/05 07:40:42;;;;;;;28.12;17.05;;;;;;;0.31;80.91;99714.44;1734689;82;21640;-41
2021/01/05 07:43:11;;;;;;;32.30;19.05;;;;;;;0.37;80.73;99710.64;1749164;82;21126;-41
2021/01/05 07:45:40;;;;;;;25.10;16.82;;;;;;;0.32;81.01;99712.03;1751055;81;21031;-41
2021/01/05 07:48:09;;;;;;;35.75;18.35;;;;;;;0.35;80.87;99727.45;1751005;82;21177;-41
2021/01/05 07:50:37;;;;;;;30.17;17.85;;;;;;;0.40;80.88;99730.07;1751215;82;21557;-41
2021/01/05 07:53:06;;;;;;;30.25;17.25;;;;;;;0.40;80.96;99719.94;1751129;82;21327;-41
2021/01/05 07:55:36;;;;;;;28.55;17.27;;;;;;;0.39;81.13;99721.80;1747856;82;21410;-44
2021/01/05 07:58:04;;;;;;;29.60;16.85;;;;;;;0.48;80.99;99723.33;1750983;81;21003;-41
2021/01/05 08:00:32;;;;;;;42.83;19.48;;;;;;;0.54;80.91;99725.38;1751031;82;21027;-40
2021/01/05 08:03:01;;;;;;;45.48;18.98;;;;;;;0.56;80.83;99733.37;1751188;81;21170;-41
2021/01/05 08:05:29;;;;;;;28.73;18.50;;;;;;;0.59;80.72;99731.99;1751073;81;21339;-41
2021/01/05 08:07:57;;;;;;;38.90;19.57;;;;;;;0.61;80.61;99721.84;1750998;81;21106;-42
2021/01/05 08:10:33;;;;;;;33.80;20.17;;;;;;;0.66;80.75;99704.44;1751531;82;21565;-41
2021/01/05 08:13:04;;;;;;;30.97;19.42;;;;;;;0.65;80.56;99701.52;1751035;82;21132;-42
2021/01/05 08:15:35;;;;;;;32.73;19.90;;;;;;;0.66;80.54;99684.44;1751128;81;21176;-40
2021/01/05 08:18:04;;;;;;;37.03;21.33;;;;;;;0.65;80.24;99684.97;1751418;81;22244;-41
2021/01/05 08:20:34;;;;;;;38.10;20.00;;;;;;;0.63;80.41;99689.02;1751153;82;20983;-41
2021/01/05 08:23:03;;;;;;;31.82;19.90;;;;;;;0.63;80.58;99689.02;1751469;80;21132;-39
2021/01/05 08:25:32;;;;;;;35.60;20.55;;;;;;;0.69;80.47;99685.19;1751178;81;20996;-41
2021/01/05 08:28:00;;;;;;;51.95;22.35;;;;;;;0.66;80.44;99688.44;1750975;82;21161;-40
2021/01/05 08:30:34;;;;;;;35.98;20.35;;;;;;;0.61;80.53;99685.30;1752778;80;21202;-40
2021/01/05 08:33:09;;;;;;;31.02;20.17;;;;;;;0.62;80.61;99686.09;1782024;80;21621;-41
2021/01/05 08:35:39;;;;;;;33.53;20.00;;;;;;;0.68;80.50;99676.92;1782063;80;21015;-39
2021/01/05 08:38:07;;;;;;;29.80;19.52;;;;;;;0.63;80.57;99671.67;1782008;80;21118;-40
2021/01/05 08:40:36;;;;;;;41.85;21.17;;;;;;;0.59;80.60;99670.63;1782070;80;21078;-41
2021/01/05 08:43:09;;;;;;;37.10;21.17;;;;;;;0.60;80.65;99686.90;1781905;80;21426;-41
2021/01/05 08:45:42;;;;;;;34.83;20.72;;;;;;;0.61;80.61;99685.30;1782272;80;21133;-41
2021/01/05 08:48:11;;;;;;;30.05;20.88;;;;;;;0.62;80.71;99693.55;1782041;80;21154;-40
2021/01/05 08:50:39;;;;;;;36.15;22.13;;;;;;;0.74;80.55;99702.47;1781981;80;21166;-41
2021/01/05 08:53:11;;;;;;;40.67;24.60;;;;;;;0.81;80.48;99701.05;1782000;79;21115;-41
2021/01/05 08:55:41;;;;;;;33.15;22.70;;;;;;;0.85;80.46;99694.59;1782013;80;21259;-41
2021/01/05 08:58:09;;;;;;;43.60;25.62;;;;;;;0.87;80.21;99692.45;1782009;80;21003;-40
2021/01/05 09:00:39;;;;;;;43.15;25.50;;;;;;;0.91;79.77;99691.32;1782255;79;21560;-41
2021/01/05 09:03:08;;;;;;;47.33;27.42;;;;;;;0.87;79.74;99692.45;1781921;80;21138;-39
2021/01/05 09:05:40;;;;;;;45.78;27.50;;;;;;;0.80;79.88;99683.98;1780839;80;21405;-41
2021/01/05 09:08:09;;;;;;;32.20;20.40;;;;;;;0.77;80.10;99683.23;1782176;79;21166;-41
2021/01/05 09:10:41;;;;;;;44.15;28.50;;;;;;;0.87;79.87;99678.53;1782020;79;20988;-41
2021/01/05 09:13:10;;;;;;;49.33;30.55;;;;;;;0.87;79.82;99679.09;1782065;80;21542;-41
2021/01/05 09:15:40;;;;;;;46.60;28.62;;;;;;;0.83;79.97;99670.05;1782118;80;21039;-40
2021/01/05 09:18:09;;;;;;;52.93;30.25;;;;;;;0.87;79.83;99679.09;1753915;80;21132;-41
2021/01/05 09:20:37;;;;;;;55.28;31.60;;;;;;;0.89;79.89;99670.25;1782081;80;21360;-40
2021/01/05 09:23:06;;;;;;;46.20;29.65;;;;;;;0.88;79.88;99659.31;1781856;80;21023;-41
2021/01/05 09:25:39;;;;;;;53.10;29.45;;;;;;;0.91;79.84;99654.75;1782111;80;21000;-41
2021/01/05 09:28:07;;;;;;;50.05;31.10;;;;;;;0.90;79.68;99651.02;1781979;80;21688;-40
2021/01/05 09:30:35;;;;;;;43.85;29.32;;;;;;;0.86;79.89;99640.14;1782038;79;21154;-41
2021/01/05 09:33:04;;;;;;;47.00;29.95;;;;;;;0.84;79.98;99638.29;1781953;80;21261;-42
2021/01/05 09:35:33;;;;;;;36.53;22.83;;;;;;;0.87;79.98;99619.81;1782222;80;21162;-40
2021/01/05 09:38:08;;;;;;;52.15;32.33;;;;;;;0.92;79.96;99617.61;1782000;79;21015;-41
2021/01/05 09:40:38;;;;;;;45.83;29.42;;;;;;;0.90;80.13;99626.47;1782194;80;21596;-42
2021/01/05 09:43:08;;;;;;;46.10;30.43;;;;;;;0.94;79.77;99626.13;1772120;80;21000;-42
2021/01/05 09:45:39;;;;;;;46.35;29.60;;;;;;;1.01;79.53;99621.78;1765029;81;21282;-40
2021/01/05 09:48:13;;;;;;;44.75;28.32;;;;;;;0.94;79.45;99616.80;1764989;81;21052;-43
2021/01/05 09:50:43;;;;;;;46.23;27.45;;;;;;;0.86;79.53;99608.11;1765226;81;21055;-43
2021/01/05 09:53:11;;;;;;;42.90;27.73;;;;;;;0.88;79.58;99607.27;1765132;81;21143;-44
2021/01/05 09:55:40;;;;;;;42.35;27.60;;;;;;;0.89;79.75;99612.86;1765102;81;21127;-42
2021/01/05 09:58:09;;;;;;;37.25;24.95;;;;;;;0.87;79.77;99616.38;1764892;81;21257;-41
2021/01/05 10:00:37;;;;;;;41.53;27.00;;;;;;;0.87;79.65;99617.14;1764956;81;21146;-40
2021/01/05 10:03:06;;;;;;;44.40;26.00;;;;;;;0.90;79.57;99598.44;1765006;81;21167;-40
2021/01/05 10:05:34;;;;;;;38.98;25.55;;;;;;;0.86;79.62;99594.23;1768924;80;20937;-40
2021/01/05 10:08:04;;;;;;;36.60;25.00;;;;;;;0.86;79.71;99603.57;1764960;81;21048;-40
2021/01/05 10:10:32;;;;;;;45.03;28.47;;;;;;;0.87;79.57;99612.37;1765132;81;22196;-42
2021/01/05 10:13:03;;;;;;;38.88;24.70;;;;;;;0.88;79.75;99604.59;1764823;81;21461;-41
2021/01/05 10:15:31;;;;;;;41.25;25.27;;;;;;;0.88;79.81;99609.39;1765081;81;21036;-39
2021/01/05 10:18:07;;;;;;;40.92;26.95;;;;;;;0.97;79.76;99614.10;1765037;80;21032;-40
2021/01/05 10:20:35;;;;;;;41.58;26.33;;;;;;;1.04;79.48;99615.31;1765050;81;21159;-40
2021/01/05 10:23:05;;;;;;;37.03;24.70;;;;;;;1.02;79.52;99612.13;1764931;81;21151;-41
2021/01/05 10:25:33;;;;;;;;;;;;;;;0.99;79.41;99611.38;1767679;81;21044;-41
2021/01/05 10:28:03;;;;;;;34.53;22.90;;;;;;;1.02;79.10;99604.11;1760045;81;20227;-41
2021/01/05 10:30:31;;;;;;;37.23;23.22;;;;;;;0.89;79.34;99603.52;1765339;81;21554;-41
2021/01/05 10:33:00;;;;;;;33.83;22.62;;;;;;;0.90;79.46;99605.66;1765245;81;21178;-42
2021/01/05 10:35:30;;;;;;;34.43;22.07;;;;;;;0.90;79.54;99594.44;1765220;81;21441;-41
2021/01/05 10:37:58;;;;;;;33.98;21.97;;;;;;;1.04;79.15;99595.28;1765094;81;21559;-41
2021/01/05 10:40:27;;;;;;;35.35;22.58;;;;;;;1.06;79.11;99599.80;1765193;81;21535;-41
2021/01/05 10:42:55;;;;;;;33.02;21.48;;;;;;;1.04;79.10;99586.48;1764987;80;21158;-40
2021/01/05 10:47:16;;;;;;;29.70;20.57;;;;;;;1.12;79.01;99578.59;1868393;76;22413;-40
2021/01/05 10:49:46;;;;;;;36.15;21.87;;;;;;;1.06;79.02;99573.11;1839038;76;21133;-40
2021/01/05 10:52:17;;;;;;;32.05;19.75;;;;;;;1.05;79.03;99570.19;1829294;76;21293;-41
2021/01/05 10:54:45;;;;;;;29.67;19.90;;;;;;;1.07;78.99;99572.54;1790067;79;21037;-40
2021/01/05 10:57:13;;;;;;;35.90;21.17;;;;;;;1.07;78.89;99560.52;1795946;78;21026;-41
2021/01/05 10:59:42;;;;;;;35.70;21.62;;;;;;;1.05;78.98;99563.51;1799407;78;20987;-40
2021/01/05 11:02:10;;;;;;;34.00;20.60;;;;;;;1.02;79.19;99557.39;1782014;79;21630;-41
2021/01/05 11:04:39;;;;;;;28.60;18.25;;;;;;;1.05;79.18;99560.84;1788095;79;23508;-40
2021/01/05 11:07:13;;;;;;;24.92;17.10;;;;;;;1.06;79.18;99551.75;1826571;78;21062;-41
2021/01/05 11:09:42;;;;;;;28.57;18.23;;;;;;;1.07;79.31;99570.67;1777079;79;21627;-41
2021/01/05 11:12:15;;;;;;;32.60;20.62;;;;;;;1.14;79.21;99568.43;1792161;79;21146;-42
2021/01/05 11:14:44;;;;;;;33.80;20.80;;;;;;;1.17;79.15;99545.67;1792691;79;21133;-42
2021/01/05 11:17:12;;;;;;;27.55;16.97;;;;;;;1.15;79.29;99541.19;1803084;78;23579;-41
2021/01/05 11:19:42;;;;;;;28.15;18.45;;;;;;;1.08;79.37;99538.89;1788619;79;21093;-41
2021/01/05 11:22:16;;;;;;;34.63;21.93;;;;;;;1.08;79.35;99538.09;1770693;79;21153;-39
2021/01/05 11:24:45;;;;;;;37.13;22.90;;;;;;;1.09;79.37;99537.80;1767307;79;21018;-40
2021/01/05 11:27:14;;;;;;;35.05;22.25;;;;;;;1.07;79.68;99547.97;1772365;79;21592;-41
2021/01/05 11:29:44;;;;;;;42.03;24.23;;;;;;;1.09;79.93;99539.14;1780679;80;21211;-42
2021/01/05 11:32:17;;;;;;;42.43;24.27;;;;;;;1.21;79.64;99536.02;1793870;79;21339;-42
2021/01/05 11:34:46;;;;;;;37.13;23.87;;;;;;;1.22;79.68;99541.59;1792013;79;21185;-36
2021/01/05 11:37:17;;;;;;;37.13;23.38;;;;;;;1.20;79.63;99528.55;1756017;81;21157;-40
2021/01/05 11:39:48;;;;;;;37.13;23.80;;;;;;;1.18;79.69;99529.91;1759348;81;21101;-39
2021/01/05 11:42:20;;;;;;;38.40;23.65;;;;;;;1.23;79.66;99516.47;1758045;81;21363;-41
2021/01/05 11:44:49;;;;;;;36.70;21.42;;;;;;;1.20;79.77;99527.75;1786050;79;21126;-41
2021/01/05 11:47:20;;;;;;;37.40;20.90;;;;;;;1.21;79.76;99515.42;1759610;81;21174;-40
2021/01/05 11:49:48;;;;;;;36.40;22.50;;;;;;;1.24;79.80;99518.06;1758872;80;21185;-41
2021/01/05 11:52:17;;;;;;;36.40;21.35;;;;;;;1.21;80.05;99511.98;1760446;81;21265;-41
2021/01/05 11:54:45;;;;;;;32.28;21.15;;;;;;;1.20;80.06;99507.19;1760673;81;21511;-40
2021/01/05 11:57:16;;;;;;;38.80;23.60;;;;;;;1.17;80.14;99510.42;1762538;80;21120;-41
2021/01/05 11:59:47;;;;;;;45.33;25.77;;;;;;;1.18;80.11;99518.69;1759433;81;21596;-39
2021/01/05 12:02:15;;;;;;;42.60;25.70;;;;;;;1.12;80.34;99522.52;1758908;81;21149;-41
2021/01/05 12:04:44;;;;;;;40.00;26.33;;;;;;;1.11;80.53;99515.63;1759061;81;21166;-41
2021/01/05 12:07:14;;;;;;;46.73;28.92;;;;;;;1.14;80.41;99516.36;1760611;81;21374;-42